createdAt,value
2023-02-07T00:00:57.745Z,14.35
2023-02-07T00:04:01.714Z,13.77
2023-02-07T00:07:06.206Z,14.30
2023-02-07T00:10:10.563Z,15.50
2023-02-07T00:13:26.614Z,14.75
2023-02-07T00:16:30.164Z,12.88
2023-02-07T00:19:33.384Z,13.75
2023-02-07T00:22:37.978Z,14.32
2023-02-07T00:25:41.090Z,13.25
2023-02-07T00:28:44.343Z,15.25
2023-02-07T00:31:47.702Z,14.18
2023-02-07T00:34:51.559Z,13.30
2023-02-07T00:37:56.147Z,13.52
2023-02-07T00:41:01.445Z,15.57
2023-02-07T00:44:05.089Z,13.55
2023-02-07T00:47:08.777Z,14.60
2023-02-07T00:50:12.049Z,13.90
2023-02-07T00:53:16.586Z,14.93
2023-02-07T00:56:19.882Z,14.70
2023-02-07T00:59:23.030Z,15.70
2023-02-07T01:02:26.318Z,14.38
2023-02-07T01:05:29.508Z,15.32
2023-02-07T01:08:34.190Z,16.33
2023-02-07T01:11:37.463Z,17.83
2023-02-07T01:14:40.827Z,14.20
2023-02-07T01:17:44.133Z,17.65
2023-02-07T01:20:47.392Z,18.05
2023-02-07T01:23:56.477Z,15.95
2023-02-07T01:26:59.652Z,17.73
2023-02-07T01:30:04.256Z,16.23
2023-02-07T01:33:07.563Z,16.48
2023-02-07T01:36:13.438Z,19.08
2023-02-07T01:39:17.905Z,19.50
2023-02-07T01:42:21.046Z,18.35
2023-02-07T01:45:29.763Z,18.40
2023-02-07T01:48:36.404Z,19.58
2023-02-07T01:51:45.453Z,18.47
2023-02-07T01:54:54.433Z,17.15
2023-02-07T01:57:58.587Z,18.48
2023-02-07T02:01:05.361Z,17.35
2023-02-07T02:04:09.331Z,17.73
2023-02-07T02:07:15.125Z,16.35
2023-02-07T02:10:22.775Z,16.83
2023-02-07T02:13:34.735Z,16.33
2023-02-07T02:16:45.728Z,18.42
2023-02-07T02:20:18.606Z,18.00
2023-02-07T02:23:33.829Z,17.58
2023-02-07T02:26:55.304Z,17.52
2023-02-07T02:30:40.522Z,19.15
2023-02-07T02:33:52.600Z,17.00
2023-02-07T02:37:03.294Z,16.90
2023-02-07T02:40:10.508Z,17.23
2023-02-07T02:43:22.379Z,17.47
2023-02-07T02:46:30.024Z,18.45
2023-02-07T02:49:38.138Z,18.05
2023-02-07T02:52:50.640Z,19.15
2023-02-07T02:56:19.157Z,20.95
2023-02-07T02:59:47.807Z,20.00
2023-02-07T03:03:01.418Z,22.40
2023-02-07T03:06:20.789Z,22.30
2023-02-07T03:09:38.857Z,21.90
2023-02-07T03:15:59.617Z,21.13
2023-02-07T03:19:09.009Z,26.55
2023-02-07T03:22:15.969Z,26.65
2023-02-07T03:25:22.411Z,25.20
2023-02-07T03:28:28.920Z,22.27
2023-02-07T03:31:32.793Z,23.23
2023-02-07T03:34:43.174Z,22.23
2023-02-07T03:37:51.207Z,22.52
2023-02-07T03:40:59.308Z,23.40
2023-02-07T03:44:07.069Z,22.38
2023-02-07T03:50:14.075Z,21.50
2023-02-07T03:53:19.044Z,22.95
2023-02-07T03:56:22.262Z,21.83
2023-02-07T03:59:25.791Z,26.30
2023-02-07T04:02:29.062Z,27.10
2023-02-07T04:05:32.320Z,28.83
2023-02-07T04:08:39.433Z,20.88
2023-02-07T04:11:42.615Z,25.53
2023-02-07T04:14:45.790Z,28.15
2023-02-07T04:17:48.903Z,28.17
2023-02-07T04:20:52.336Z,28.23
2023-02-07T04:23:57.497Z,27.52
2023-02-07T04:27:01.204Z,28.90
2023-02-07T04:30:05.140Z,26.92
2023-02-07T04:34:25.719Z,26.70
2023-02-07T04:37:28.938Z,28.48
2023-02-07T04:40:32.149Z,25.30
2023-02-07T04:43:37.595Z,31.48
2023-02-07T04:46:40.823Z,36.22
2023-02-07T04:49:45.384Z,36.90
2023-02-07T04:52:48.610Z,39.28
2023-02-07T04:55:52.512Z,25.85
2023-02-07T04:58:56.216Z,27.25
2023-02-07T05:01:59.885Z,21.88
2023-02-07T05:05:04.400Z,23.52
2023-02-07T05:08:07.991Z,25.58
2023-02-07T05:11:11.211Z,27.27
2023-02-07T05:14:14.384Z,25.73
2023-02-07T05:17:17.619Z,26.65
2023-02-07T05:20:22.588Z,25.52
2023-02-07T05:23:25.859Z,26.50
2023-02-07T05:26:29.155Z,25.92
2023-02-07T05:29:32.437Z,28.17
2023-02-07T05:32:52.948Z,25.02
2023-02-07T05:35:57.988Z,26.75
2023-02-07T05:39:01.209Z,25.73
2023-02-07T05:42:04.496Z,25.88
2023-02-07T05:45:09.006Z,25.83
2023-02-07T05:48:12.320Z,29.02
2023-02-07T05:51:17.001Z,25.90
2023-02-07T05:54:20.110Z,27.38
2023-02-07T05:57:23.349Z,27.33
2023-02-07T06:00:26.679Z,26.60
2023-02-07T06:03:29.910Z,27.67
2023-02-07T06:06:35.746Z,30.42
2023-02-07T06:09:39.611Z,29.30
2023-02-07T06:12:43.747Z,28.85
2023-02-07T06:15:46.992Z,27.55
2023-02-07T06:18:50.647Z,27.67
2023-02-07T06:21:55.288Z,28.50
2023-02-07T06:24:58.452Z,28.38
2023-02-07T06:28:01.978Z,26.73
2023-02-07T06:31:05.653Z,27.88
2023-02-07T06:34:09.405Z,27.80
2023-02-07T06:37:14.072Z,29.33
2023-02-07T06:40:18.018Z,29.88
2023-02-07T06:43:21.194Z,27.00
2023-02-07T06:46:24.630Z,27.83
2023-02-07T06:49:27.754Z,28.20
2023-02-07T06:52:32.388Z,52.60
2023-02-07T06:55:39.448Z,58.50
2023-02-07T06:58:42.793Z,36.53
2023-02-07T07:01:47.744Z,28.63
2023-02-07T07:04:52.471Z,31.77
2023-02-07T07:07:57.091Z,29.85
2023-02-07T07:11:00.292Z,29.98
2023-02-07T07:14:03.450Z,38.15
2023-02-07T07:17:06.930Z,28.25
2023-02-07T07:20:11.752Z,28.00
2023-02-07T07:23:16.301Z,27.95
2023-02-07T07:26:19.764Z,27.95
2023-02-07T07:29:22.951Z,27.40
2023-02-07T07:35:49.231Z,25.95
2023-02-07T07:38:55.120Z,28.42
2023-02-07T07:41:58.304Z,26.10
2023-02-07T07:45:28.466Z,24.25
2023-02-07T07:48:31.725Z,24.88
2023-02-07T07:51:35.339Z,22.98
2023-02-07T07:54:39.743Z,23.70
2023-02-07T07:57:42.962Z,24.45
2023-02-07T08:00:47.661Z,24.30
2023-02-07T08:03:51.069Z,20.90
2023-02-07T08:06:54.235Z,19.92
2023-02-07T08:09:58.881Z,21.15
2023-02-07T08:13:02.243Z,20.33
2023-02-07T08:16:08.634Z,19.88
2023-02-07T08:19:12.113Z,18.73
2023-02-07T08:22:15.791Z,19.65
2023-02-07T08:25:20.703Z,18.48
2023-02-07T08:28:24.817Z,19.23
2023-02-07T08:31:28.267Z,21.25
2023-02-07T08:34:37.298Z,18.88
2023-02-07T08:37:40.621Z,18.20
2023-02-07T08:40:46.731Z,16.88
2023-02-07T08:43:49.859Z,17.38
2023-02-07T08:46:53.066Z,17.10
2023-02-07T08:49:56.183Z,17.40
2023-02-07T08:52:59.773Z,19.88
2023-02-07T08:56:04.629Z,18.42
2023-02-07T08:59:07.972Z,18.23
2023-02-07T09:02:12.680Z,16.65
2023-02-07T09:05:16.218Z,20.25
2023-02-07T09:08:19.423Z,16.23
2023-02-07T09:11:24.435Z,20.48
2023-02-07T09:14:27.714Z,21.10
2023-02-07T09:17:31.011Z,18.50
2023-02-07T09:20:34.196Z,20.90
2023-02-07T09:23:37.411Z,20.58
2023-02-07T09:26:42.054Z,20.27
2023-02-07T09:29:45.385Z,20.52
2023-02-07T09:32:48.822Z,21.77
2023-02-07T09:35:54.030Z,21.20
2023-02-07T09:38:58.138Z,19.05
2023-02-07T09:42:20.237Z,17.25
2023-02-07T09:45:27.928Z,18.88
2023-02-07T09:48:44.490Z,19.13
2023-02-07T09:51:48.389Z,16.60
2023-02-07T09:54:54.839Z,16.83
2023-02-07T09:58:04.314Z,16.05
2023-02-07T10:01:11.044Z,14.50
2023-02-07T10:04:31.622Z,14.80
2023-02-07T10:07:34.772Z,15.57
2023-02-07T10:10:45.791Z,15.82
2023-02-07T10:14:04.296Z,18.58
2023-02-07T10:20:39.306Z,13.95
2023-02-07T10:23:58.134Z,14.88
2023-02-07T10:30:15.706Z,14.60
2023-02-07T10:34:28.962Z,15.52
2023-02-07T10:40:45.171Z,15.15
2023-02-07T10:43:48.956Z,13.85
2023-02-07T10:46:59.317Z,15.95
2023-02-07T10:50:10.509Z,15.30
2023-02-07T10:53:55.373Z,15.52
2023-02-07T10:57:02.841Z,13.82
2023-02-07T11:00:10.798Z,12.52
2023-02-07T11:03:17.231Z,14.80
2023-02-07T11:06:28.025Z,15.32
2023-02-07T11:09:31.890Z,13.82
2023-02-07T11:12:35.073Z,14.10
2023-02-07T11:15:41.762Z,12.75
2023-02-07T11:18:47.137Z,13.45
2023-02-07T11:21:54.350Z,12.00
2023-02-07T11:25:03.880Z,12.03
2023-02-07T11:28:08.701Z,12.23
2023-02-07T11:31:15.750Z,12.65
2023-02-07T11:34:43.142Z,13.15
2023-02-07T11:37:59.013Z,13.88
2023-02-07T11:41:06.653Z,14.35
2023-02-07T11:44:17.637Z,14.48
2023-02-07T11:47:25.908Z,14.02
2023-02-07T11:50:33.661Z,13.40
2023-02-07T11:53:41.752Z,13.77
2023-02-07T11:56:50.884Z,13.60
2023-02-07T12:00:06.557Z,12.82
2023-02-07T12:03:23.594Z,12.65
2023-02-07T12:06:33.211Z,13.18
2023-02-07T12:09:44.430Z,11.48
2023-02-07T12:12:50.825Z,11.15
2023-02-07T12:15:57.561Z,13.75
2023-02-07T12:19:06.235Z,12.30
2023-02-07T12:22:18.330Z,10.50
2023-02-07T12:25:25.489Z,12.43
2023-02-07T12:28:35.717Z,11.38
2023-02-07T12:31:47.647Z,10.93
2023-02-07T12:34:57.008Z,10.85
2023-02-07T12:38:09.714Z,10.30
2023-02-07T12:41:20.921Z,11.88
2023-02-07T12:44:27.302Z,11.07
2023-02-07T12:47:43.912Z,11.32
2023-02-07T12:51:01.457Z,10.20
2023-02-07T12:54:20.862Z,9.18
2023-02-07T12:57:35.846Z,10.68
2023-02-07T13:00:52.944Z,11.63
2023-02-07T13:04:17.488Z,10.05
2023-02-07T13:07:35.184Z,11.23
2023-02-07T13:10:49.063Z,8.97
2023-02-07T13:14:06.434Z,8.98
2023-02-07T13:17:36.076Z,9.40
2023-02-07T13:20:54.415Z,9.90
2023-02-07T13:24:02.531Z,10.00
2023-02-07T13:27:13.957Z,8.70
2023-02-07T13:30:20.656Z,9.02
2023-02-07T13:33:34.806Z,11.82
2023-02-07T13:36:43.113Z,12.18
2023-02-07T13:39:56.914Z,9.50
2023-02-07T13:43:06.811Z,8.77
2023-02-07T13:46:26.870Z,8.90
2023-02-07T13:49:42.882Z,7.35
2023-02-07T13:52:55.219Z,6.70
2023-02-07T13:56:03.456Z,7.18
2023-02-07T13:59:39.651Z,8.90
2023-02-07T14:02:48.857Z,7.65
2023-02-07T14:05:52.553Z,8.32
2023-02-07T14:09:02.574Z,8.77
2023-02-07T14:12:08.837Z,8.98
2023-02-07T14:15:51.969Z,8.30
2023-02-07T14:18:57.443Z,8.95
2023-02-07T14:22:15.251Z,7.65
2023-02-07T14:25:24.482Z,8.97
2023-02-07T14:28:36.077Z,9.25
2023-02-07T14:31:48.457Z,8.20
2023-02-07T14:35:06.555Z,7.35
2023-02-07T14:38:21.865Z,7.07
2023-02-07T14:41:30.164Z,8.15
2023-02-07T14:44:36.744Z,8.38
2023-02-07T14:47:40.403Z,8.60
2023-02-07T14:50:53.662Z,9.10
2023-02-07T14:54:02.675Z,9.43
2023-02-07T14:57:18.090Z,8.60
2023-02-07T15:00:31.297Z,12.60
2023-02-07T15:03:35.098Z,7.90
2023-02-07T15:06:42.957Z,7.75
2023-02-07T15:09:46.232Z,7.85
2023-02-07T15:12:55.642Z,7.60
2023-02-07T15:16:02.416Z,7.97
2023-02-07T15:19:12.908Z,7.68
2023-02-07T15:22:26.468Z,13.38
2023-02-07T15:25:31.326Z,7.85
2023-02-07T15:28:36.768Z,10.90
2023-02-07T15:31:41.651Z,8.95
2023-02-07T15:34:46.030Z,9.27
2023-02-07T15:37:51.410Z,10.80
2023-02-07T15:40:55.598Z,10.25
2023-02-07T15:44:00.488Z,12.13
2023-02-07T15:47:06.887Z,10.48
2023-02-07T15:50:22.818Z,9.17
2023-02-07T15:53:30.737Z,11.77
2023-02-07T15:56:34.597Z,8.90
2023-02-07T15:59:38.883Z,9.48
2023-02-07T16:02:47.330Z,9.35
2023-02-07T16:06:02.761Z,11.43
2023-02-07T16:09:07.307Z,12.90
2023-02-07T16:12:33.716Z,9.82
2023-02-07T16:15:41.516Z,14.52
2023-02-07T16:18:48.100Z,14.27
2023-02-07T16:21:53.496Z,11.32
2023-02-07T16:25:01.639Z,12.20
2023-02-07T16:28:10.961Z,12.45
2023-02-07T16:34:25.544Z,18.92
2023-02-07T16:37:29.280Z,15.65
2023-02-07T16:40:32.712Z,11.55
2023-02-07T16:43:39.509Z,10.35
2023-02-07T16:46:42.737Z,9.70
2023-02-07T16:49:47.637Z,10.13
2023-02-07T16:52:52.768Z,8.55
2023-02-07T16:55:57.994Z,9.57
2023-02-07T16:59:01.215Z,10.13
2023-02-07T17:02:12.283Z,10.07
2023-02-07T17:05:17.188Z,9.93
2023-02-07T17:08:26.827Z,10.45
2023-02-07T17:11:30.906Z,11.10
2023-02-07T17:14:36.267Z,12.60
2023-02-07T17:17:39.554Z,13.30
2023-02-07T17:20:44.209Z,12.95
2023-02-07T17:23:48.919Z,10.85
2023-02-07T17:26:54.368Z,16.00
2023-02-07T17:29:57.506Z,16.13
2023-02-07T17:33:00.918Z,15.68
2023-02-07T17:36:06.170Z,17.17
2023-02-07T17:39:13.178Z,12.32
2023-02-07T17:42:18.083Z,13.27
2023-02-07T17:45:21.695Z,14.68
2023-02-07T17:48:25.323Z,12.95
2023-02-07T17:51:30.576Z,13.85
2023-02-07T17:54:33.675Z,14.27
2023-02-07T17:57:36.838Z,14.57
2023-02-07T18:00:41.527Z,14.15
2023-02-07T18:03:45.120Z,15.52
2023-02-07T18:06:49.833Z,17.58
2023-02-07T18:09:52.973Z,21.75
2023-02-07T18:12:56.664Z,19.50
2023-02-07T18:15:59.904Z,27.60
2023-02-07T18:19:03.622Z,23.63
2023-02-07T18:22:08.173Z,22.33
2023-02-07T18:25:11.611Z,21.70
2023-02-07T18:28:14.953Z,20.85
2023-02-07T18:31:24.933Z,20.88
2023-02-07T18:34:31.136Z,25.25
2023-02-07T18:37:35.702Z,21.85
2023-02-07T18:40:41.397Z,21.73
2023-02-07T18:49:12.905Z,15.40
2023-02-07T18:56:59.674Z,16.60
2023-02-07T19:00:03.642Z,18.45
2023-02-07T19:03:16.713Z,18.92
2023-02-07T19:11:46.916Z,16.05
2023-02-07T19:15:36.649Z,17.88
2023-02-07T19:18:46.136Z,19.67
2023-02-07T19:21:49.670Z,18.60
2023-02-07T19:24:52.827Z,19.08
2023-02-07T19:27:56.046Z,20.52
2023-02-07T19:31:04.063Z,18.70
2023-02-07T19:37:11.303Z,23.45
2023-02-07T19:40:14.564Z,21.42
2023-02-07T19:43:17.717Z,20.65
2023-02-07T19:46:22.131Z,19.13
2023-02-07T19:49:27.194Z,19.92
2023-02-07T19:52:33.536Z,20.08
2023-02-07T19:55:39.202Z,22.15
2023-02-07T19:58:48.097Z,32.85
2023-02-07T20:01:51.270Z,32.03
2023-02-07T20:05:17.596Z,31.27
2023-02-07T20:13:47.728Z,29.25
2023-02-07T20:16:51.352Z,29.02
2023-02-07T20:19:54.617Z,26.77
2023-02-07T20:23:06.641Z,30.55
2023-02-07T20:26:12.256Z,30.52
2023-02-07T20:29:17.154Z,30.13
2023-02-07T20:32:57.589Z,29.75
2023-02-07T20:36:08.532Z,29.92
2023-02-07T20:39:33.207Z,29.90
2023-02-07T20:42:36.872Z,30.90
2023-02-07T21:11:07.930Z,28.23
2023-02-07T21:14:14.578Z,27.23
2023-02-07T21:20:35.639Z,26.65
2023-02-07T21:23:40.207Z,25.35
2023-02-07T21:26:47.780Z,20.75
2023-02-07T21:29:51.028Z,23.75
2023-02-07T21:33:25.168Z,25.92
2023-02-07T21:36:30.236Z,26.73
2023-02-07T21:39:33.417Z,23.27
2023-02-07T21:42:38.160Z,25.55
2023-02-07T21:45:41.778Z,26.08
2023-02-07T21:48:46.834Z,25.23
2023-02-07T21:51:53.694Z,24.55
2023-02-07T21:55:02.032Z,23.58
2023-02-07T21:58:06.614Z,24.92
2023-02-07T22:01:13.665Z,24.20
2023-02-07T22:04:17.726Z,25.37
2023-02-07T22:07:20.841Z,31.98
2023-02-07T22:10:24.154Z,31.05
2023-02-07T22:13:28.778Z,32.42
2023-02-07T22:16:33.668Z,31.98
2023-02-07T22:19:36.862Z,27.95
2023-02-07T22:28:55.799Z,27.27
2023-02-07T22:34:25.094Z,34.28
2023-02-07T22:37:28.220Z,28.38
2023-02-07T22:40:31.471Z,28.58
2023-02-07T22:49:06.243Z,34.28
2023-02-07T22:52:10.710Z,31.13
2023-02-07T22:55:15.305Z,32.40
2023-02-07T22:58:18.797Z,33.17
2023-02-07T23:01:23.888Z,30.85
2023-02-07T23:04:42.584Z,32.88
2023-02-07T23:12:51.194Z,32.83
2023-02-07T23:16:06.179Z,31.17
2023-02-07T23:19:13.467Z,34.97
2023-02-07T23:28:01.836Z,31.98
2023-02-07T23:36:25.580Z,31.73
2023-02-07T23:44:08.468Z,26.63
2023-02-07T23:47:11.840Z,24.50
2023-02-07T23:50:15.274Z,30.25
2023-02-07T23:53:18.487Z,28.85
2023-02-07T23:56:23.601Z,31.48
2023-02-07T23:59:39.070Z,31.08
